Time;durP1;ratioP1;P1;durP2;ratioP2;P2;SDS_P1;SDS_P2;PMS_P1;PMS_P2;Temp;Humidity;BMP_temperature;BMP_pressure;BME280_temperature;BME280_humidity;BME280_pressure;Samples;Min_cycle;Max_cycle;Signal;HPM_P1;HPM_P2
2023/04/18 00:01:03;;;;;;;37.50;25.03;;;;;8.30;102027.00;;;;9778671;29;20219;-82
2023/04/18 00:06:05;;;;;;;37.23;24.27;;;;;8.30;102022.00;;;;9774095;29;20847;-82
2023/04/18 00:11:08;;;;;;;40.07;25.40;;;;;8.20;102018.00;;;;9763480;29;21629;-82
2023/04/18 00:16:12;;;;;;;35.77;25.63;;;;;8.10;102007.00;;;;9745356;29;20219;-82
2023/04/18 00:21:16;;;;;;;34.27;26.00;;;;;8.10;102012.00;;;;9746002;29;20226;-82
2023/04/18 00:26:18;;;;;;;35.80;25.10;;;;;8.00;102011.00;;;;9776418;29;21600;-82
2023/04/18 00:31:21;;;;;;;40.40;25.93;;;;;8.00;102015.00;;;;9758605;29;20857;-82
2023/04/18 00:36:25;;;;;;;38.63;26.07;;;;;7.90;102012.00;;;;9772401;29;20620;-81
2023/04/18 00:41:29;;;;;;;38.27;25.57;;;;;7.80;102006.00;;;;9730926;29;21470;-82
2023/04/18 00:46:31;;;;;;;35.83;25.77;;;;;7.70;102005.00;;;;9766576;29;20230;-81
2023/04/18 00:51:34;;;;;;;35.90;24.77;;;;;7.60;102005.00;;;;9793907;29;20249;-82
2023/04/18 00:56:36;;;;;;;38.03;24.87;;;;;7.60;101996.00;;;;9759691;29;20218;-82
2023/04/18 01:01:39;;;;;;;36.53;25.73;;;;;7.50;102001.00;;;;9758851;29;22098;-81
2023/04/18 01:06:42;;;;;;;34.90;25.10;;;;;7.50;101996.00;;;;9749659;29;20332;-82
2023/04/18 01:11:44;;;;;;;38.27;25.87;;;;;7.40;101991.00;;;;9777693;29;21285;-82
2023/04/18 01:16:47;;;;;;;37.77;25.03;;;;;7.30;101986.00;;;;9777789;29;21029;-81
2023/04/18 01:21:52;;;;;;;37.93;26.43;;;;;7.20;101987.00;;;;9749235;29;20368;-81
2023/04/18 01:26:54;;;;;;;35.30;25.27;;;;;7.10;101978.00;;;;9779690;29;21310;-82
2023/04/18 01:31:56;;;;;;;35.93;25.73;;;;;7.00;101964.00;;;;9768317;29;20249;-82
2023/04/18 01:36:58;;;;;;;39.67;26.57;;;;;6.90;101962.00;;;;9769264;29;20218;-81
2023/04/18 01:42:00;;;;;;;37.30;25.07;;;;;6.80;101962.00;;;;9785605;29;20222;-81
2023/04/18 01:47:02;;;;;;;36.37;24.97;;;;;6.70;101953.00;;;;9777799;29;20210;-82
2023/04/18 01:52:07;;;;;;;44.47;26.07;;;;;6.50;101955.00;;;;9762245;29;20254;-81
2023/04/18 01:57:09;;;;;;;40.67;27.00;;;;;6.50;101944.00;;;;9762880;29;20990;-81
2023/04/18 02:02:12;;;;;;;43.43;24.17;;;;;6.40;101950.00;;;;9746340;29;20935;-82
2023/04/18 02:07:14;;;;;;;41.30;27.13;;;;;6.40;101953.00;;;;9778986;29;22226;-81
2023/04/18 02:12:16;;;;;;;40.57;27.70;;;;;6.30;101941.00;;;;9781976;29;22179;-81
2023/04/18 02:17:22;;;;;;;41.77;27.03;;;;;6.30;101934.00;;;;9795569;29;21181;-81
2023/04/18 02:22:24;;;;;;;43.13;28.23;;;;;6.20;101939.00;;;;9799016;29;21134;-81
2023/04/18 02:27:27;;;;;;;38.53;26.13;;;;;6.20;101937.00;;;;9798065;29;20225;-82
2023/04/18 02:32:31;;;;;;;44.43;28.80;;;;;6.20;101939.00;;;;9777922;29;20222;-81
2023/04/18 02:37:33;;;;;;;39.37;27.43;;;;;6.20;101929.00;;;;9796564;29;20252;-82
2023/04/18 02:42:35;;;;;;;39.30;26.23;;;;;6.10;101934.00;;;;9782344;29;20258;-81
2023/04/18 02:47:38;;;;;;;40.13;26.70;;;;;6.00;101926.00;;;;9799107;29;20220;-81
2023/04/18 02:52:55;;;;;;;42.63;27.03;;;;;6.00;101935.00;;;;9782663;29;20226;-81
2023/04/18 02:58:03;;;;;;;42.23;27.37;;;;;5.90;101921.00;;;;9749542;29;20240;-82
2023/04/18 03:03:28;;;;;;;38.63;26.20;;;;;5.90;101924.00;;;;9737492;29;20242;-81
2023/04/18 03:08:47;;;;;;;42.90;26.67;;;;;5.80;101927.00;;;;9752544;29;20981;-82
2023/04/18 03:13:49;;;;;;;42.17;25.13;;;;;5.80;101924.00;;;;9747934;29;20957;-82
2023/04/18 03:18:52;;;;;;;45.27;27.47;;;;;5.80;101922.00;;;;9757954;29;20455;-81
2023/04/18 03:23:56;;;;;;;45.10;27.10;;;;;5.80;101927.00;;;;9743716;29;20334;-81
2023/04/18 03:28:58;;;;;;;38.60;25.03;;;;;5.70;101936.00;;;;9754604;29;20246;-82
2023/04/18 03:34:00;;;;;;;36.77;25.87;;;;;5.60;101938.00;;;;9742059;29;20298;-82
2023/04/18 03:39:03;;;;;;;38.47;25.90;;;;;5.60;101933.00;;;;9753761;29;20309;-81
2023/04/18 03:44:05;;;;;;;39.87;26.03;;;;;5.50;101932.00;;;;9772522;29;20348;-81
2023/04/18 03:49:10;;;;;;;39.80;25.83;;;;;5.40;101929.00;;;;9743089;29;20245;-82
2023/04/18 03:54:13;;;;;;;38.37;25.27;;;;;5.40;101924.00;;;;9757483;29;20790;-81
2023/04/18 03:59:16;;;;;;;39.00;25.30;;;;;5.40;101932.00;;;;9776613;29;20241;-82
2023/04/18 04:04:22;;;;;;;36.40;23.53;;;;;5.40;101929.00;;;;9736294;29;20895;-83
2023/04/18 04:09:25;;;;;;;42.17;25.07;;;;;5.30;101931.00;;;;9762057;29;20249;-81
2023/04/18 04:14:27;;;;;;;36.37;25.20;;;;;5.30;101934.00;;;;9762107;29;20305;-82
2023/04/18 04:19:30;;;;;;;35.87;24.07;;;;;5.20;101928.00;;;;9741564;29;21296;-82
2023/04/18 04:24:45;;;;;;;37.43;24.37;;;;;5.20;101923.00;;;;9770929;29;20654;-82
2023/04/18 04:29:51;;;;;;;34.50;23.63;;;;;5.20;101925.00;;;;9738580;29;21220;-82
2023/04/18 04:34:55;;;;;;;32.83;22.20;;;;;5.20;101933.00;;;;9754298;29;20942;-82
2023/04/18 04:39:59;;;;;;;35.63;21.83;;;;;5.20;101929.00;;;;9782715;29;20233;-81
2023/04/18 04:45:16;;;;;;;26.23;19.53;;;;;5.20;101934.00;;;;9725330;29;20781;-81
2023/04/18 04:50:19;;;;;;;31.93;20.33;;;;;5.30;101944.00;;;;9752317;29;20707;-82
2023/04/18 04:55:21;;;;;;;26.07;18.97;;;;;5.30;101942.00;;;;9737711;29;20278;-81
2023/04/18 05:00:24;;;;;;;27.93;20.30;;;;;5.40;101948.00;;;;9766902;29;20345;-82
2023/04/18 05:05:26;;;;;;;26.80;19.17;;;;;5.40;101941.00;;;;9766474;29;20232;-81
2023/04/18 05:10:29;;;;;;;28.43;18.07;;;;;5.50;101932.00;;;;9771613;29;21869;-82
2023/04/18 05:15:31;;;;;;;25.77;19.20;;;;;5.60;101940.00;;;;9766921;29;21824;-82
2023/04/18 05:20:33;;;;;;;26.10;18.30;;;;;5.80;101941.00;;;;9757144;29;20230;-82
2023/04/18 05:25:35;;;;;;;26.70;18.07;;;;;5.90;101951.00;;;;9771179;29;20225;-81
2023/04/18 05:30:38;;;;;;;26.27;16.47;;;;;6.00;101947.00;;;;9755322;29;20467;-82
2023/04/18 05:35:40;;;;;;;23.73;16.27;;;;;6.20;101943.00;;;;9760566;29;21572;-82
2023/04/18 05:40:42;;;;;;;21.47;16.77;;;;;6.40;101942.00;;;;9794046;29;20228;-82
2023/04/18 05:45:45;;;;;;;23.20;14.87;;;;;6.60;101948.00;;;;9755049;29;20792;-82
2023/04/18 05:50:47;;;;;;;23.77;16.10;;;;;6.80;101944.00;;;;9751882;29;20323;-82
2023/04/18 05:55:49;;;;;;;23.00;14.50;;;;;7.10;101951.00;;;;9762962;29;20222;-82
2023/04/18 06:00:51;;;;;;;18.53;15.00;;;;;7.30;101953.00;;;;9777374;29;20272;-82
2023/04/18 06:05:53;;;;;;;19.17;14.07;;;;;7.50;101949.00;;;;9774612;29;20590;-82
2023/04/18 06:10:55;;;;;;;18.97;13.73;;;;;7.80;101952.00;;;;9779398;29;21426;-83
2023/04/18 06:15:59;;;;;;;16.40;10.87;;;;;8.10;101947.00;;;;9756987;29;20218;-83
2023/04/18 06:21:01;;;;;;;15.53;11.87;;;;;8.50;101945.00;;;;9759555;29;21554;-83
2023/04/18 06:26:03;;;;;;;16.47;11.83;;;;;8.70;101947.00;;;;9762397;29;20233;-83
2023/04/18 06:31:05;;;;;;;18.27;11.80;;;;;9.00;101945.00;;;;9776361;29;20259;-84
2023/04/18 06:36:08;;;;;;;16.03;10.43;;;;;9.40;101952.00;;;;9752315;29;20230;-84
2023/04/18 06:41:13;;;;;;;13.10;11.20;;;;;9.60;101951.00;;;;9761971;29;20457;-84
2023/04/18 06:52:20;;;;;;;12.10;10.57;;;;;10.00;101949.00;;;;10454942;24;20253;-83
2023/04/18 06:57:24;;;;;;;13.20;10.40;;;;;10.20;101948.00;;;;9744759;29;20283;-84
2023/04/18 07:02:26;;;;;;;11.40;9.40;;;;;10.40;101944.00;;;;9729155;29;20839;-84
2023/04/18 07:07:28;;;;;;;11.37;9.53;;;;;10.60;101943.00;;;;9746387;29;20226;-83
2023/04/18 07:12:30;;;;;;;17.13;11.13;;;;;10.70;101954.00;;;;9729928;29;20331;-83
2023/04/18 07:17:32;;;;;;;11.57;9.57;;;;;11.00;101935.00;;;;9765095;29;20215;-83
2023/04/18 07:22:34;;;;;;;11.33;9.20;;;;;11.20;101942.00;;;;9724631;29;20237;-83
2023/04/18 07:27:36;;;;;;;18.00;10.20;;;;;11.50;101940.00;;;;9703898;29;20246;-84
2023/04/18 07:32:38;;;;;;;13.53;10.07;;;;;11.60;101935.00;;;;9712129;29;20601;-84
2023/04/18 07:37:40;;;;;;;11.37;9.40;;;;;11.70;101930.00;;;;9688256;29;20227;-83
2023/04/18 07:42:42;;;;;;;10.73;9.40;;;;;12.00;101919.00;;;;9669324;29;20235;-84
2023/04/18 07:47:44;;;;;;;12.97;10.40;;;;;12.40;101931.00;;;;9738310;29;20223;-82
2023/04/18 07:52:47;;;;;;;15.87;13.07;;;;;12.70;101929.00;;;;9706418;29;20241;-83
2023/04/18 07:57:49;;;;;;;13.93;10.50;;;;;12.80;101938.00;;;;9738334;29;20873;-84
2023/04/18 08:02:51;;;;;;;15.73;12.20;;;;;12.90;101928.00;;;;9711086;29;21006;-84
2023/04/18 08:07:53;;;;;;;11.50;10.40;;;;;13.50;101918.00;;;;9718413;29;20332;-83
2023/04/18 08:12:55;;;;;;;11.80;10.57;;;;;12.80;101933.00;;;;9720151;29;20248;-84
2023/04/18 08:17:59;;;;;;;13.47;10.23;;;;;12.80;101921.00;;;;9709984;29;20354;-84
2023/04/18 08:23:02;;;;;;;12.60;10.97;;;;;14.00;101922.00;;;;9743031;29;20227;-83
2023/04/18 08:28:11;;;;;;;13.47;10.30;;;;;14.50;101918.00;;;;9710620;29;20299;-84
2023/04/18 08:33:14;;;;;;;13.03;11.00;;;;;15.20;101920.00;;;;9720810;29;21646;-84
2023/04/18 08:38:17;;;;;;;11.55;10.35;;;;;15.30;101915.00;;;;9713910;29;20253;-84
2023/04/18 08:43:19;;;;;;;16.63;11.13;;;;;14.30;101919.00;;;;9683601;29;20239;-84
2023/04/18 08:48:21;;;;;;;10.83;9.73;;;;;14.40;101917.00;;;;9716439;29;20391;-84
2023/04/18 08:53:25;;;;;;;12.20;10.93;;;;;14.00;101913.00;;;;9689544;29;20255;-84
2023/04/18 08:58:31;;;;;;;12.53;10.73;;;;;14.80;101917.00;;;;9703945;29;20961;-84
2023/04/18 09:03:40;;;;;;;14.07;10.70;;;;;15.50;101913.00;;;;9687914;29;20229;-84
2023/04/18 09:08:53;;;;;;;13.50;11.67;;;;;15.40;101913.00;;;;9698864;29;20909;-85
2023/04/18 09:13:57;;;;;;;18.50;10.98;;;;;15.70;101897.00;;;;9672253;29;21821;-84
2023/04/18 09:19:11;;;;;;;13.30;11.27;;;;;16.20;101899.00;;;;9700723;29;21348;-84
2023/04/18 09:24:31;;;;;;;12.50;11.15;;;;;17.00;101893.00;;;;9703801;29;20390;-84
2023/04/18 09:29:48;;;;;;;13.55;11.77;;;;;17.20;101898.00;;;;9690219;29;20933;-84
2023/04/18 09:34:53;;;;;;;15.32;12.10;;;;;17.90;101892.00;;;;9723601;29;20230;-84
2023/04/18 09:39:55;;;;;;;16.77;12.77;;;;;17.90;101894.00;;;;9692675;29;20234;-85
2023/04/18 09:44:58;;;;;;;16.80;13.82;;;;;17.90;101894.00;;;;9675106;29;20342;-85
2023/04/18 09:50:10;;;;;;;14.60;12.45;;;;;17.90;101891.00;;;;9661370;29;20243;-85
2023/04/18 09:55:17;;;;;;;16.92;13.07;;;;;18.10;101886.00;;;;9697760;30;20228;-84
2023/04/18 10:00:26;;;;;;;15.73;12.02;;;;;18.30;101888.00;;;;9710423;29;20236;-84
2023/04/18 10:05:35;;;;;;;15.27;13.65;;;;;18.20;101889.00;;;;9736058;29;20224;-84
2023/04/18 10:10:42;;;;;;;16.38;12.23;;;;;18.20;101887.00;;;;9709020;30;20301;-85
2023/04/18 10:15:44;;;;;;;14.18;10.63;;;;;17.10;101865.00;;;;9724596;29;20220;-84
2023/04/18 10:20:46;;;;;;;11.82;10.48;;;;;18.50;101870.00;;;;9708618;29;20239;-84
2023/04/18 10:25:49;;;;;;;13.05;10.98;;;;;18.30;101875.00;;;;9743253;29;20215;-85
2023/04/18 10:30:52;;;;;;;11.80;10.38;;;;;18.80;101854.00;;;;9699467;29;20227;-84
2023/04/18 10:36:04;;;;;;;11.90;9.60;;;;;18.30;101870.00;;;;9701551;29;20239;-84
2023/04/18 10:41:21;;;;;;;12.98;10.00;;;;;17.60;101875.00;;;;9732528;29;20215;-84
2023/04/18 10:46:23;;;;;;;11.05;9.80;;;;;18.70;101859.00;;;;9679566;29;20221;-84
2023/04/18 10:51:33;;;;;;;14.40;10.15;;;;;19.30;101864.00;;;;9713403;29;20271;-84
2023/04/18 10:56:35;;;;;;;11.65;10.38;;;;;18.30;101872.00;;;;9737198;30;20280;-84
2023/04/18 11:01:43;;;;;;;10.88;9.82;;;;;17.80;101857.00;;;;9734295;29;20223;-84
2023/04/18 11:06:55;;;;;;;11.73;10.55;;;;;20.00;101869.00;;;;9743669;30;20212;-85
2023/04/18 11:12:10;;;;;;;11.00;8.85;;;;;19.60;101842.00;;;;9713208;30;20233;-83
2023/04/18 11:17:23;;;;;;;13.00;9.57;;;;;20.70;101850.00;;;;9712300;30;20222;-85
2023/04/18 11:22:26;;;;;;;10.38;9.30;;;;;19.70;101843.00;;;;9729698;30;20216;-84
2023/04/18 11:27:28;;;;;;;10.93;9.75;;;;;19.70;101844.00;;;;9722551;30;20216;-84
2023/04/18 11:32:32;;;;;;;11.43;10.20;;;;;19.30;101850.00;;;;9737995;30;20240;-84
2023/04/18 11:37:36;;;;;;;15.07;9.25;;;;;19.90;101864.00;;;;9731561;30;20981;-84
2023/04/18 11:42:40;;;;;;;11.70;9.82;;;;;20.50;101861.00;;;;9703863;30;20372;-85
2023/04/18 11:47:45;;;;;;;12.32;11.15;;;;;18.70;101864.00;;;;9734002;29;20342;-84
2023/04/18 11:52:52;;;;;;;14.48;11.80;;;;;18.40;101858.00;;;;9734165;30;20240;-84
2023/04/18 11:57:55;;;;;;;13.13;11.60;;;;;18.70;101854.00;;;;9706492;30;20219;-84
2023/04/18 12:02:58;;;;;;;13.25;11.93;;;;;20.00;101847.00;;;;9728020;29;20220;-84
2023/04/18 12:08:04;;;;;;;12.57;11.27;;;;;20.90;101844.00;;;;9716316;30;20224;-85
2023/04/18 12:13:07;;;;;;;12.90;11.68;;;;;19.80;101846.00;;;;9724165;30;20936;-83
2023/04/18 12:18:15;;;;;;;11.32;10.20;;;;;18.80;101851.00;;;;9708040;29;21078;-84
2023/04/18 12:23:39;;;;;;;11.15;10.00;;;;;19.40;101833.00;;;;9703021;29;20212;-83
2023/04/18 12:28:44;;;;;;;8.75;7.90;;;;;19.70;101835.00;;;;9720556;29;21647;-83
2023/04/18 12:33:46;;;;;;;7.30;6.60;;;;;19.60;101830.00;;;;9706217;29;20232;-85
2023/04/18 12:38:48;;;;;;;7.70;7.05;;;;;20.60;101827.00;;;;9726560;29;20224;-84
2023/04/18 12:43:50;;;;;;;8.13;6.70;;;;;20.40;101837.00;;;;9710023;29;20211;-84
2023/04/18 12:48:52;;;;;;;6.68;5.97;;;;;18.30;101831.00;;;;9709246;29;21974;-83
2023/04/18 12:53:54;;;;;;;6.20;5.60;;;;;17.80;101819.00;;;;9724947;29;21735;-84
2023/04/18 12:58:56;;;;;;;7.95;6.57;;;;;17.40;101821.00;;;;9712725;29;20308;-83
2023/04/18 13:03:58;;;;;;;8.05;6.68;;;;;18.80;101817.00;;;;9684736;29;20291;-84
2023/04/18 13:09:13;;;;;;;6.78;6.13;;;;;17.50;101827.00;;;;9727958;29;20234;-84
2023/04/18 13:14:15;;;;;;;8.85;6.68;;;;;17.80;101807.00;;;;9727056;29;20716;-84
2023/04/18 13:19:17;;;;;;;7.70;6.32;;;;;19.10;101805.00;;;;9725608;29;20220;-84
2023/04/18 13:24:19;;;;;;;8.60;6.78;;;;;20.20;101804.00;;;;9704798;29;20215;-84
2023/04/18 13:29:21;;;;;;;8.20;7.10;;;;;21.70;101796.00;;;;9719802;29;20273;-84
2023/04/18 13:34:23;;;;;;;8.05;7.25;;;;;21.20;101807.00;;;;9718495;29;20215;-84
2023/04/18 13:39:25;;;;;;;9.73;8.77;;;;;22.50;101790.00;;;;9706639;29;20251;-84
2023/04/18 13:44:28;;;;;;;10.90;9.80;;;;;23.30;101790.00;;;;9739273;29;20909;-85
2023/04/18 13:49:32;;;;;;;11.60;10.50;;;;;22.60;101803.00;;;;9723646;29;21936;-84
2023/04/18 13:54:35;;;;;;;11.65;10.10;;;;;23.40;101789.00;;;;9709165;29;20222;-84
2023/04/18 13:59:41;;;;;;;12.35;9.88;;;;;25.30;101793.00;;;;9718569;29;20274;-84
2023/04/18 14:04:43;;;;;;;10.05;9.05;;;;;25.50;101783.00;;;;9722088;29;20220;-84
2023/04/18 14:09:46;;;;;;;10.25;9.25;;;;;26.70;101777.00;;;;9689338;29;20239;-84
2023/04/18 14:14:49;;;;;;;13.18;9.57;;;;;27.00;101784.00;;;;9738366;29;20220;-83
2023/04/18 14:19:51;;;;;;;10.55;9.50;;;;;25.00;101800.00;;;;9699776;29;20343;-85
2023/04/18 14:24:54;;;;;;;10.98;9.88;;;;;20.40;101798.00;;;;9745887;29;20611;-84
2023/04/18 14:29:57;;;;;;;12.43;11.13;;;;;18.30;101798.00;;;;9730985;29;20329;-83
2023/04/18 14:34:59;;;;;;;13.02;11.73;;;;;18.00;101782.00;;;;9723088;29;20247;-83
2023/04/18 14:40:01;;;;;;;14.77;10.57;;;;;18.40;101782.00;;;;9710132;29;20214;-84
2023/04/18 14:45:04;;;;;;;12.18;10.82;;;;;19.30;101784.00;;;;9722912;29;20372;-83
2023/04/18 14:50:07;;;;;;;13.18;11.35;;;;;21.20;101780.00;;;;9727045;29;21580;-83
2023/04/18 14:55:09;;;;;;;12.27;10.95;;;;;24.40;101755.00;;;;9700743;29;20219;-84
2023/04/18 15:00:13;;;;;;;12.00;10.82;;;;;22.30;101785.00;;;;9741753;29;20216;-84
2023/04/18 15:05:16;;;;;;;14.52;11.60;;;;;20.30;101779.00;;;;9733808;29;20216;-84
2023/04/18 15:10:21;;;;;;;12.02;10.82;;;;;19.30;101778.00;;;;9704097;29;20687;-84
2023/04/18 15:15:24;;;;;;;13.35;12.05;;;;;19.40;101774.00;;;;9739126;29;20219;-84
2023/04/18 15:20:27;;;;;;;14.48;12.98;;;;;19.40;101774.00;;;;9717279;29;20286;-84
2023/04/18 15:25:30;;;;;;;13.60;12.23;;;;;18.30;101779.00;;;;9744519;29;21943;-83
2023/04/18 15:30:32;;;;;;;14.32;12.93;;;;;17.30;101782.00;;;;9736052;29;20239;-84
2023/04/18 15:35:34;;;;;;;14.00;11.85;;;;;17.40;101771.00;;;;9723041;29;20216;-83
2023/04/18 15:40:36;;;;;;;14.40;12.60;;;;;17.90;101769.00;;;;9710001;29;20220;-83
2023/04/18 15:45:38;;;;;;;16.63;13.07;;;;;18.90;101761.00;;;;9745413;29;20219;-82
2023/04/18 15:50:41;;;;;;;14.98;13.45;;;;;17.70;101776.00;;;;9735726;30;20235;-83
2023/04/18 15:55:45;;;;;;;16.52;13.82;;;;;17.20;101776.00;;;;9735632;30;20316;-83
2023/04/18 16:00:49;;;;;;;15.40;13.20;;;;;17.20;101771.00;;;;9747548;29;20211;-83
2023/04/18 16:05:51;;;;;;;14.82;12.50;;;;;17.00;101776.00;;;;9729727;29;20227;-83
2023/04/18 16:10:53;;;;;;;17.17;13.07;;;;;16.80;101783.00;;;;9753306;30;20234;-83
2023/04/18 16:15:54;;;;;;;13.77;12.45;;;;;16.50;101775.00;;;;9746081;30;20232;-83
2023/04/18 16:20:57;;;;;;;15.82;13.27;;;;;16.40;101778.00;;;;9727454;30;20230;-83
2023/04/18 16:25:59;;;;;;;15.63;13.45;;;;;16.40;101767.00;;;;9698248;30;20216;-83
2023/04/18 16:31:01;;;;;;;14.48;12.90;;;;;16.00;101763.00;;;;9726727;30;20365;-83
2023/04/18 16:36:03;;;;;;;16.23;14.57;;;;;15.80;101772.00;;;;9721563;30;21474;-83
2023/04/18 16:41:05;;;;;;;18.05;14.23;;;;;15.70;101767.00;;;;9724916;30;20334;-83
2023/04/18 16:46:07;;;;;;;16.77;13.40;;;;;16.00;101768.00;;;;9718731;30;20220;-83
2023/04/18 16:51:11;;;;;;;17.55;14.68;;;;;16.10;101777.00;;;;9707762;29;20537;-83
2023/04/18 16:56:13;;;;;;;18.70;16.80;;;;;15.80;101779.00;;;;9725095;29;20688;-83
2023/04/18 17:01:15;;;;;;;19.65;17.73;;;;;15.20;101777.00;;;;9729712;30;20217;-83
2023/04/18 17:06:18;;;;;;;21.55;19.42;;;;;14.90;101776.00;;;;9709070;30;20273;-83
2023/04/18 17:11:20;;;;;;;20.27;18.13;;;;;14.80;101781.00;;;;9722471;29;20519;-83
2023/04/18 17:16:22;;;;;;;21.15;19.08;;;;;14.70;101787.00;;;;9725237;30;20235;-83
2023/04/18 17:21:24;;;;;;;21.87;19.57;;;;;14.30;101787.00;;;;9724305;30;20565;-82
2023/04/18 17:26:26;;;;;;;22.63;20.27;;;;;14.10;101787.00;;;;9721606;29;20272;-83
2023/04/18 17:31:32;;;;;;;22.70;20.30;;;;;13.80;101792.00;;;;9701952;30;20955;-82
2023/04/18 17:36:34;;;;;;;22.60;19.20;;;;;13.70;101788.00;;;;9709001;30;20231;-83
2023/04/18 17:41:37;;;;;;;22.40;20.00;;;;;13.60;101790.00;;;;9723781;30;20218;-83
2023/04/18 17:46:39;;;;;;;24.13;21.53;;;;;13.50;101793.00;;;;9718071;30;20382;-83
2023/04/18 17:51:41;;;;;;;22.60;20.20;;;;;13.50;101797.00;;;;9701896;30;20223;-83
2023/04/18 17:56:44;;;;;;;22.40;19.97;;;;;13.40;101791.00;;;;9731306;29;20839;-83
2023/04/18 18:01:46;;;;;;;29.30;21.97;;;;;13.30;101799.00;;;;9728397;30;20215;-82
2023/04/18 18:06:53;;;;;;;24.40;21.73;;;;;13.20;101803.00;;;;9729950;30;21687;-83
2023/04/18 18:11:55;;;;;;;26.40;23.63;;;;;13.00;101809.00;;;;9728541;30;20224;-83
2023/04/18 18:16:57;;;;;;;26.90;24.17;;;;;12.80;101810.00;;;;9731580;30;20219;-82
2023/04/18 18:22:00;;;;;;;26.67;23.33;;;;;12.70;101805.00;;;;9754773;29;20941;-83
2023/04/18 18:27:01;;;;;;;30.33;24.53;;;;;12.50;101814.00;;;;9738918;30;20223;-83
2023/04/18 18:32:04;;;;;;;28.13;23.23;;;;;12.40;101822.00;;;;9752624;30;20318;-83
2023/04/18 18:37:06;;;;;;;29.30;24.33;;;;;12.30;101819.00;;;;9720300;30;20905;-82
2023/04/18 18:42:08;;;;;;;27.53;22.50;;;;;12.10;101828.00;;;;9713640;30;20216;-83
2023/04/18 18:47:10;;;;;;;25.70;22.23;;;;;12.00;101826.00;;;;9731976;30;21010;-83
2023/04/18 18:52:12;;;;;;;27.77;22.53;;;;;11.90;101832.00;;;;9733208;30;20282;-82
2023/04/18 18:57:14;;;;;;;30.97;22.53;;;;;11.70;101839.00;;;;9733880;29;20220;-82
2023/04/18 19:02:16;;;;;;;26.93;21.40;;;;;11.60;101849.00;;;;9731943;30;20208;-82
2023/04/18 19:07:18;;;;;;;27.87;20.60;;;;;11.50;101851.00;;;;9727906;30;21931;-82
2023/04/18 19:12:20;;;;;;;26.33;21.43;;;;;11.50;101854.00;;;;9729752;30;20240;-82
2023/04/18 19:17:23;;;;;;;28.67;22.30;;;;;11.40;101864.00;;;;9730691;29;20278;-82
2023/04/18 19:22:27;;;;;;;28.37;21.03;;;;;11.30;101858.00;;;;9718308;29;20254;-82
2023/04/18 19:27:28;;;;;;;25.10;20.47;;;;;11.20;101872.00;;;;9718074;30;20235;-82
2023/04/18 19:32:31;;;;;;;26.63;20.17;;;;;11.20;101880.00;;;;9730422;30;20223;-82
2023/04/18 19:37:33;;;;;;;26.40;20.30;;;;;11.10;101877.00;;;;9722145;30;22339;-82
2023/04/18 19:42:35;;;;;;;25.83;20.43;;;;;11.00;101879.00;;;;9714669;30;20231;-82
2023/04/18 19:47:37;;;;;;;28.50;21.40;;;;;10.90;101881.00;;;;9708375;30;20311;-82
2023/04/18 19:52:39;;;;;;;29.03;20.93;;;;;10.90;101885.00;;;;9789465;30;20238;-82
2023/04/18 19:57:42;;;;;;;27.53;21.70;;;;;10.80;101887.00;;;;9774569;29;20243;-82
2023/04/18 20:02:44;;;;;;;29.23;22.80;;;;;10.70;101889.00;;;;9802593;29;20220;-82
2023/04/18 20:07:46;;;;;;;26.37;21.53;;;;;10.60;101890.00;;;;9791323;30;20577;-81
2023/04/18 20:12:48;;;;;;;28.27;21.73;;;;;10.60;101884.00;;;;9762047;29;20224;-81
2023/04/18 20:17:51;;;;;;;28.30;22.63;;;;;10.50;101884.00;;;;9776087;30;20228;-81
2023/04/18 20:22:53;;;;;;;29.27;22.97;;;;;10.40;101894.00;;;;9776548;30;20306;-81
2023/04/18 20:27:55;;;;;;;30.00;22.30;;;;;10.40;101894.00;;;;9790811;30;20223;-81
2023/04/18 20:32:57;;;;;;;24.13;20.53;;;;;10.30;101892.00;;;;9774102;30;21227;-81
2023/04/18 20:37:59;;;;;;;26.83;20.93;;;;;10.30;101896.00;;;;9783562;30;20343;-81
2023/04/18 20:43:05;;;;;;;31.23;21.77;;;;;10.20;101892.00;;;;9785030;30;20258;-81
2023/04/18 20:48:08;;;;;;;27.90;22.57;;;;;10.20;101897.00;;;;9755069;29;20249;-81
2023/04/18 20:53:10;;;;;;;28.87;22.97;;;;;10.10;101901.00;;;;9772820;30;20239;-81
2023/04/18 20:58:12;;;;;;;26.60;21.07;;;;;10.10;101902.00;;;;9786196;30;21644;-81
2023/04/18 21:03:15;;;;;;;27.77;20.80;;;;;10.00;101902.00;;;;9771895;30;20220;-81
2023/04/18 21:08:18;;;;;;;25.60;20.53;;;;;10.00;101910.00;;;;9756900;30;22022;-81
2023/04/18 21:13:20;;;;;;;27.03;21.73;;;;;10.00;101913.00;;;;9786645;30;21010;-81
2023/04/18 21:18:22;;;;;;;27.20;20.90;;;;;9.90;101915.00;;;;9772500;29;20219;-80
2023/04/18 21:23:25;;;;;;;27.63;20.77;;;;;9.90;101918.00;;;;9794927;29;20220;-81
2023/04/18 21:28:28;;;;;;;27.00;21.70;;;;;9.80;101913.00;;;;9794000;30;20223;-81
2023/04/18 21:33:30;;;;;;;25.40;20.33;;;;;9.80;101919.00;;;;9794547;30;20219;-81
2023/04/18 21:38:32;;;;;;;27.67;21.60;;;;;9.80;101928.00;;;;9781600;30;20465;-81
2023/04/18 21:43:34;;;;;;;25.30;20.87;;;;;9.80;101925.00;;;;9813735;29;20297;-81
2023/04/18 21:48:40;;;;;;;29.90;21.37;;;;;9.80;101923.00;;;;9809840;30;20346;-81
2023/04/18 21:53:42;;;;;;;23.97;20.13;;;;;9.70;101927.00;;;;9767780;29;20269;-81
2023/04/18 21:58:44;;;;;;;27.40;21.00;;;;;9.70;101929.00;;;;9780964;30;20222;-81
2023/04/18 22:03:46;;;;;;;27.03;20.37;;;;;9.70;101924.00;;;;9796698;30;21939;-81
2023/04/18 22:08:50;;;;;;;25.80;19.27;;;;;9.60;101931.00;;;;9782327;30;20223;-83
2023/04/18 22:13:53;;;;;;;25.53;20.53;;;;;9.60;101936.00;;;;9780450;30;20236;-81
2023/04/18 22:18:55;;;;;;;23.67;19.47;;;;;9.50;101938.00;;;;9764097;30;20376;-81
2023/04/18 22:23:57;;;;;;;26.97;22.17;;;;;9.40;101939.00;;;;9808790;29;20223;-81
2023/04/18 22:28:59;;;;;;;26.90;20.63;;;;;9.40;101934.00;;;;9784705;30;20227;-81
2023/04/18 22:34:01;;;;;;;24.53;20.70;;;;;9.40;101942.00;;;;9780757;29;20233;-81
2023/04/18 22:39:03;;;;;;;26.30;20.60;;;;;9.30;101943.00;;;;9778884;30;20775;-81
2023/04/18 22:44:05;;;;;;;26.43;20.83;;;;;9.30;101939.00;;;;9778827;30;20329;-81
2023/04/18 22:49:07;;;;;;;28.47;20.83;;;;;9.20;101954.00;;;;9776925;29;20239;-81
2023/04/18 22:54:09;;;;;;;29.13;21.07;;;;;9.10;101972.00;;;;9793749;30;20969;-81
2023/04/18 22:59:11;;;;;;;27.17;19.83;;;;;9.00;101963.00;;;;9777209;30;20298;-81
2023/04/18 23:04:13;;;;;;;28.50;21.50;;;;;8.90;101958.00;;;;9806773;29;20231;-81
2023/04/18 23:09:18;;;;;;;28.90;22.20;;;;;8.80;101966.00;;;;9776390;30;20249;-81
2023/04/18 23:14:21;;;;;;;29.50;22.50;;;;;8.80;101976.00;;;;9776026;30;20239;-81
2023/04/18 23:19:23;;;;;;;32.17;21.53;;;;;8.80;101978.00;;;;9763476;30;20223;-81
2023/04/18 23:24:25;;;;;;;30.43;23.60;;;;;8.80;101974.00;;;;9761981;30;20251;-81
2023/04/18 23:29:27;;;;;;;30.20;22.87;;;;;8.70;101972.00;;;;9804903;30;20230;-81
2023/04/18 23:34:30;;;;;;;30.23;23.03;;;;;8.70;101976.00;;;;9777433;30;20242;-81
2023/04/18 23:39:32;;;;;;;31.23;23.47;;;;;8.60;101969.00;;;;9777992;30;20250;-81
2023/04/18 23:44:35;;;;;;;32.10;24.40;;;;;8.60;101967.00;;;;9794018;29;20245;-81
2023/04/18 23:49:36;;;;;;;30.73;23.47;;;;;8.50;101970.00;;;;9778080;30;20219;-81
2023/04/18 23:54:39;;;;;;;33.20;23.03;;;;;8.40;101973.00;;;;9779147;30;20821;-81
2023/04/18 23:59:41;;;;;;;30.13;23.03;;;;;8.40;101978.00;;;;9804278;29;20219;-81
